createdAt,value
2023-09-29T00:00:11.490Z,979.22
2023-09-29T00:01:11.485Z,979.24
2023-09-29T00:02:11.461Z,979.24
2023-09-29T00:03:11.548Z,979.27
2023-09-29T00:04:11.505Z,979.29
2023-09-29T00:05:11.428Z,979.21
2023-09-29T00:06:11.409Z,979.32
2023-09-29T00:07:11.395Z,979.26
2023-09-29T00:08:11.374Z,979.31
2023-09-29T00:09:11.367Z,979.31
2023-09-29T00:10:11.367Z,979.35
2023-09-29T00:11:11.364Z,979.36
2023-09-29T00:12:11.323Z,979.35
2023-09-29T00:13:11.309Z,979.37
2023-09-29T00:14:11.287Z,979.34
2023-09-29T00:15:11.275Z,979.36
2023-09-29T00:16:11.287Z,979.34
2023-09-29T00:17:11.247Z,979.31
2023-09-29T00:18:11.281Z,979.27
2023-09-29T00:19:11.235Z,979.24
2023-09-29T00:20:11.212Z,979.34
2023-09-29T00:21:11.195Z,979.22
2023-09-29T00:22:11.188Z,979.23
2023-09-29T00:23:11.172Z,979.25
2023-09-29T00:24:11.156Z,979.25
2023-09-29T00:25:11.162Z,979.21
2023-09-29T00:26:11.328Z,979.26
2023-09-29T00:27:11.138Z,979.22
2023-09-29T00:28:11.097Z,979.21
2023-09-29T00:29:11.098Z,979.23
2023-09-29T00:30:11.079Z,979.21
2023-09-29T00:31:11.089Z,979.23
2023-09-29T00:32:11.390Z,979.21
2023-09-29T00:33:11.141Z,979.20
2023-09-29T00:34:11.020Z,979.19
2023-09-29T00:35:11.008Z,979.25
2023-09-29T00:36:11.037Z,979.21
2023-09-29T00:37:10.984Z,979.27
2023-09-29T00:38:10.980Z,979.27
2023-09-29T00:39:10.981Z,979.28
2023-09-29T00:40:10.933Z,979.25
2023-09-29T00:41:10.955Z,979.23
2023-09-29T00:42:10.964Z,979.20
2023-09-29T00:43:10.912Z,979.21
2023-09-29T00:44:10.875Z,979.16
2023-09-29T00:45:10.862Z,979.16
2023-09-29T00:46:10.882Z,979.29
2023-09-29T00:47:10.839Z,979.30
2023-09-29T00:48:11.121Z,979.23
2023-09-29T00:49:10.812Z,979.18
2023-09-29T00:50:10.795Z,979.24
2023-09-29T00:51:10.784Z,979.27
2023-09-29T00:52:10.776Z,979.18
2023-09-29T00:53:10.756Z,979.21
2023-09-29T00:54:10.739Z,979.28
2023-09-29T00:55:10.722Z,979.22
2023-09-29T00:56:10.708Z,979.30
2023-09-29T00:57:10.696Z,979.28
2023-09-29T00:58:10.685Z,979.29
2023-09-29T00:59:10.708Z,979.31
2023-09-29T01:00:10.655Z,979.34
2023-09-29T01:01:10.704Z,979.32
2023-09-29T01:02:10.634Z,979.33
2023-09-29T01:03:10.774Z,979.33
2023-09-29T01:04:10.885Z,979.27
2023-09-29T01:05:10.895Z,979.31
2023-09-29T01:06:10.580Z,979.29
2023-09-29T01:07:10.565Z,979.35
2023-09-29T01:08:10.559Z,979.32
2023-09-29T01:09:10.588Z,979.28
2023-09-29T01:10:10.525Z,979.25
2023-09-29T01:11:10.535Z,979.22
2023-09-29T01:12:10.602Z,979.14
2023-09-29T01:13:10.513Z,979.23
2023-09-29T01:14:10.674Z,979.20
2023-09-29T01:15:10.637Z,979.23
2023-09-29T01:16:10.776Z,979.27
2023-09-29T01:17:10.443Z,979.20
2023-09-29T01:18:10.868Z,979.29
2023-09-29T01:19:10.708Z,979.19
2023-09-29T01:20:10.413Z,979.27
2023-09-29T01:21:10.401Z,979.21
2023-09-29T01:22:10.386Z,979.29
2023-09-29T01:23:10.372Z,979.33
2023-09-29T01:24:10.349Z,979.31
2023-09-29T01:25:10.333Z,979.28
2023-09-29T01:26:10.333Z,979.33
2023-09-29T01:27:10.311Z,979.29
2023-09-29T01:28:10.296Z,979.33
2023-09-29T01:29:10.281Z,979.34
2023-09-29T01:30:10.263Z,979.26
2023-09-29T01:31:10.321Z,979.31
2023-09-29T01:32:10.239Z,979.29
2023-09-29T01:33:10.363Z,979.17
2023-09-29T01:34:10.210Z,979.19
2023-09-29T01:35:10.198Z,979.21
2023-09-29T01:36:10.186Z,979.22
2023-09-29T01:37:10.170Z,979.24
2023-09-29T01:38:10.157Z,979.36
2023-09-29T01:39:10.514Z,979.39
2023-09-29T01:40:10.129Z,979.39
2023-09-29T01:41:10.118Z,979.28
2023-09-29T01:42:10.110Z,979.28
2023-09-29T01:43:10.103Z,979.38
2023-09-29T01:44:10.087Z,979.26
2023-09-29T01:45:10.071Z,979.25
2023-09-29T01:46:10.067Z,979.27
2023-09-29T01:47:10.136Z,979.34
2023-09-29T01:48:10.220Z,979.35
2023-09-29T01:49:10.190Z,979.35
2023-09-29T01:50:10.101Z,979.42
2023-09-29T01:51:09.985Z,979.27
2023-09-29T01:52:09.978Z,979.38
2023-09-29T01:53:09.964Z,979.38
2023-09-29T01:54:09.945Z,979.31
2023-09-29T01:55:10.438Z,979.41
2023-09-29T01:56:09.944Z,979.42
2023-09-29T01:57:09.909Z,979.39
2023-09-29T01:58:09.892Z,979.34
2023-09-29T01:59:09.888Z,979.34
2023-09-29T02:00:09.870Z,979.35
2023-09-29T02:01:09.890Z,979.31
2023-09-29T02:02:09.874Z,979.29
2023-09-29T02:03:10.029Z,979.26
2023-09-29T02:04:09.884Z,979.30
2023-09-29T02:05:09.804Z,979.28
2023-09-29T02:06:09.798Z,979.30
2023-09-29T02:07:09.776Z,979.28
2023-09-29T02:08:09.813Z,979.31
2023-09-29T02:09:09.747Z,979.31
2023-09-29T02:10:09.733Z,979.25
2023-09-29T02:11:09.740Z,979.26
2023-09-29T02:12:09.715Z,979.28
2023-09-29T02:13:09.697Z,979.29
2023-09-29T02:14:09.675Z,979.30
2023-09-29T02:15:09.672Z,979.26
2023-09-29T02:16:09.711Z,979.22
2023-09-29T02:17:09.631Z,979.22
2023-09-29T02:18:09.732Z,979.21
2023-09-29T02:19:09.742Z,979.28
2023-09-29T02:20:09.585Z,979.22
2023-09-29T02:21:09.569Z,979.16
2023-09-29T02:22:09.555Z,979.15
2023-09-29T02:23:09.552Z,979.13
2023-09-29T02:24:09.527Z,979.21
2023-09-29T02:25:09.510Z,979.12
2023-09-29T02:26:09.501Z,979.14
2023-09-29T02:27:09.481Z,979.19
2023-09-29T02:28:09.473Z,979.20
2023-09-29T02:29:09.463Z,979.18
2023-09-29T02:30:09.448Z,979.16
2023-09-29T02:31:09.502Z,979.17
2023-09-29T02:32:09.416Z,979.10
2023-09-29T02:33:09.493Z,979.07
2023-09-29T02:34:09.397Z,979.13
2023-09-29T02:35:09.410Z,979.13
2023-09-29T02:36:09.366Z,979.17
2023-09-29T02:37:09.348Z,979.14
2023-09-29T02:38:09.336Z,979.17
2023-09-29T02:39:09.378Z,979.21
2023-09-29T02:40:09.305Z,979.24
2023-09-29T02:41:09.288Z,979.24
2023-09-29T02:42:09.274Z,979.25
2023-09-29T02:43:09.261Z,979.21
2023-09-29T02:44:09.250Z,979.25
2023-09-29T02:45:09.741Z,979.14
2023-09-29T02:46:09.227Z,979.17
2023-09-29T02:47:09.577Z,979.20
2023-09-29T02:48:09.256Z,979.24
2023-09-29T02:49:09.192Z,979.20
2023-09-29T02:50:09.174Z,979.24
2023-09-29T02:51:09.181Z,979.23
2023-09-29T02:52:09.151Z,979.27
2023-09-29T02:53:09.130Z,979.25
2023-09-29T02:54:09.118Z,979.21
2023-09-29T02:55:09.134Z,979.21
2023-09-29T02:56:09.096Z,979.22
2023-09-29T02:57:09.139Z,979.21
2023-09-29T02:58:09.071Z,979.21
2023-09-29T02:59:09.050Z,979.22
2023-09-29T03:00:09.043Z,979.20
2023-09-29T03:01:09.041Z,979.27
2023-09-29T03:02:09.025Z,979.21
2023-09-29T03:03:09.101Z,979.16
2023-09-29T03:04:09.137Z,979.17
2023-09-29T03:05:08.971Z,979.13
2023-09-29T03:06:08.961Z,979.03
2023-09-29T03:07:08.967Z,979.06
2023-09-29T03:08:08.931Z,979.05
2023-09-29T03:09:08.946Z,979.11
2023-09-29T03:10:08.921Z,979.09
2023-09-29T03:11:08.892Z,979.04
2023-09-29T03:12:08.873Z,979.10
2023-09-29T03:13:08.858Z,979.06
2023-09-29T03:14:08.852Z,979.12
2023-09-29T03:15:08.835Z,979.17
2023-09-29T03:16:08.838Z,979.12
2023-09-29T03:17:08.809Z,979.15
2023-09-29T03:18:08.927Z,979.15
2023-09-29T03:19:08.779Z,979.10
2023-09-29T03:20:08.765Z,979.10
2023-09-29T03:21:08.819Z,979.08
2023-09-29T03:22:08.741Z,979.04
2023-09-29T03:23:08.754Z,979.08
2023-09-29T03:24:08.719Z,979.10
2023-09-29T03:25:08.700Z,979.01
2023-09-29T03:26:08.705Z,979.01
2023-09-29T03:27:08.674Z,978.94
2023-09-29T03:28:08.684Z,979.10
2023-09-29T03:29:08.661Z,979.05
2023-09-29T03:30:08.647Z,979.05
2023-09-29T03:31:08.697Z,978.95
2023-09-29T03:32:08.610Z,979.02
2023-09-29T03:33:08.704Z,979.01
2023-09-29T03:34:08.635Z,979.03
2023-09-29T03:35:08.568Z,979.08
2023-09-29T03:36:08.558Z,979.04
2023-09-29T03:37:08.542Z,979.02
2023-09-29T03:38:08.528Z,979.00
2023-09-29T03:39:08.564Z,978.99
2023-09-29T03:40:08.499Z,978.99
2023-09-29T03:41:08.484Z,978.96
2023-09-29T03:42:08.467Z,978.92
2023-09-29T03:43:08.464Z,978.99
2023-09-29T03:44:08.442Z,978.91
2023-09-29T03:45:08.441Z,978.98
2023-09-29T03:46:08.428Z,979.03
2023-09-29T03:47:08.406Z,978.98
2023-09-29T03:48:08.459Z,979.00
2023-09-29T03:49:08.374Z,979.03
2023-09-29T03:50:08.360Z,979.06
2023-09-29T03:51:08.348Z,978.97
2023-09-29T03:52:08.331Z,979.02
2023-09-29T03:53:08.317Z,978.94
2023-09-29T03:54:08.312Z,979.05
2023-09-29T03:55:08.324Z,979.02
2023-09-29T03:56:08.280Z,979.04
2023-09-29T03:57:08.271Z,979.03
2023-09-29T03:58:08.259Z,979.04
2023-09-29T03:59:08.242Z,979.03
2023-09-29T04:00:08.251Z,979.04
2023-09-29T04:01:08.268Z,979.00
2023-09-29T04:02:08.208Z,979.02
2023-09-29T04:03:08.298Z,979.00
2023-09-29T04:04:08.312Z,979.00
2023-09-29T04:05:08.156Z,978.98
2023-09-29T04:06:08.207Z,979.08
2023-09-29T04:07:08.135Z,979.11
2023-09-29T04:08:08.117Z,979.15
2023-09-29T04:09:08.141Z,979.13
2023-09-29T04:10:08.084Z,979.10
2023-09-29T04:11:08.099Z,979.08
2023-09-29T04:12:08.258Z,979.03
2023-09-29T04:13:08.047Z,979.04
2023-09-29T04:14:12.806Z,978.99
2023-09-29T04:15:09.076Z,979.02
2023-09-29T04:16:07.999Z,978.95
2023-09-29T04:17:07.998Z,978.92
2023-09-29T04:18:08.047Z,979.11
2023-09-29T04:19:07.966Z,979.09
2023-09-29T04:20:08.006Z,979.10
2023-09-29T04:21:07.953Z,979.13
2023-09-29T04:22:07.925Z,979.12
2023-09-29T04:23:07.907Z,979.13
2023-09-29T04:24:07.966Z,979.13
2023-09-29T04:25:07.881Z,979.12
2023-09-29T04:26:07.865Z,979.14
2023-09-29T04:27:07.920Z,979.20
2023-09-29T04:28:07.864Z,979.11
2023-09-29T04:29:07.825Z,979.19
2023-09-29T04:30:07.886Z,979.18
2023-09-29T04:31:07.850Z,979.24
2023-09-29T04:32:07.795Z,979.20
2023-09-29T04:33:07.842Z,979.24
2023-09-29T04:34:07.773Z,979.25
2023-09-29T04:35:07.762Z,979.29
2023-09-29T04:36:07.778Z,979.30
2023-09-29T04:37:07.766Z,979.33
2023-09-29T04:38:07.708Z,979.34
2023-09-29T04:39:07.724Z,979.35
2023-09-29T04:40:07.678Z,979.42
2023-09-29T04:41:07.664Z,979.34
2023-09-29T04:42:07.722Z,979.38
2023-09-29T04:43:07.673Z,979.44
2023-09-29T04:44:07.648Z,979.34
2023-09-29T04:45:07.774Z,979.40
2023-09-29T04:46:07.621Z,979.41
2023-09-29T04:47:07.588Z,979.47
2023-09-29T04:48:07.639Z,979.43
2023-09-29T04:49:07.561Z,979.48
2023-09-29T04:50:07.539Z,979.45
2023-09-29T04:51:07.622Z,979.48
2023-09-29T04:52:07.512Z,979.46
2023-09-29T04:53:07.507Z,979.48
2023-09-29T04:54:07.552Z,979.48
2023-09-29T04:55:07.483Z,979.50
2023-09-29T04:56:07.468Z,979.50
2023-09-29T04:57:07.561Z,979.54
2023-09-29T04:58:07.442Z,979.48
2023-09-29T04:59:07.459Z,979.41
2023-09-29T05:00:07.427Z,979.51
2023-09-29T05:01:07.430Z,979.46
2023-09-29T05:02:07.373Z,979.39
2023-09-29T05:03:07.632Z,979.41
2023-09-29T05:04:07.590Z,979.38
2023-09-29T05:05:07.335Z,979.47
2023-09-29T05:06:07.379Z,979.48
2023-09-29T05:07:07.309Z,979.42
2023-09-29T05:08:07.306Z,979.44
2023-09-29T05:09:07.316Z,979.47
2023-09-29T05:10:07.270Z,979.42
2023-09-29T05:11:07.258Z,979.42
2023-09-29T05:12:07.259Z,979.44
2023-09-29T05:13:07.228Z,979.49
2023-09-29T05:14:07.220Z,979.50
2023-09-29T05:15:07.278Z,979.51
2023-09-29T05:16:07.238Z,979.44
2023-09-29T05:17:07.183Z,979.50
2023-09-29T05:18:07.278Z,979.54
2023-09-29T05:19:07.298Z,979.48
2023-09-29T05:20:07.133Z,979.54
2023-09-29T05:21:07.165Z,979.50
2023-09-29T05:22:07.101Z,979.48
2023-09-29T05:23:07.091Z,979.50
2023-09-29T05:24:07.138Z,979.49
2023-09-29T05:25:07.070Z,979.60
2023-09-29T05:26:07.056Z,979.57
2023-09-29T05:27:07.101Z,979.58
2023-09-29T05:28:07.021Z,979.61
2023-09-29T05:29:07.023Z,979.62
2023-09-29T05:30:07.051Z,979.55
2023-09-29T05:31:07.040Z,979.62
2023-09-29T05:32:06.965Z,979.61
2023-09-29T05:33:07.020Z,979.67
2023-09-29T05:34:06.947Z,979.59
2023-09-29T05:35:06.931Z,979.66
2023-09-29T05:36:06.941Z,979.63
2023-09-29T05:37:06.910Z,979.65
2023-09-29T05:38:06.891Z,979.64
2023-09-29T05:39:06.924Z,979.67
2023-09-29T05:40:06.868Z,979.72
2023-09-29T05:41:06.859Z,979.61
2023-09-29T05:42:06.920Z,979.58
2023-09-29T05:43:07.175Z,979.62
2023-09-29T05:44:06.803Z,979.56
2023-09-29T05:45:06.798Z,979.68
2023-09-29T05:46:06.790Z,979.64
2023-09-29T05:47:06.784Z,979.71
2023-09-29T05:48:06.805Z,979.71
2023-09-29T05:49:06.749Z,979.65
2023-09-29T05:50:17.570Z,979.65
2023-09-29T05:51:07.789Z,979.65
2023-09-29T05:52:06.699Z,979.66
2023-09-29T05:53:10.894Z,979.60
2023-09-29T05:54:06.670Z,979.60
2023-09-29T05:55:06.663Z,979.54
2023-09-29T05:56:06.643Z,979.65
2023-09-29T05:57:06.762Z,979.67
2023-09-29T05:58:06.612Z,979.60
2023-09-29T05:59:06.602Z,979.61
2023-09-29T06:00:06.619Z,979.60
2023-09-29T06:01:06.571Z,979.54
2023-09-29T06:02:18.650Z,979.59
2023-09-29T06:03:07.679Z,979.56
2023-09-29T06:04:06.689Z,979.60
2023-09-29T06:05:06.527Z,979.66
2023-09-29T06:06:06.560Z,979.64
2023-09-29T06:07:06.499Z,979.63
2023-09-29T06:08:06.469Z,979.61
2023-09-29T06:09:06.468Z,979.62
2023-09-29T06:10:06.461Z,979.63
2023-09-29T06:11:06.431Z,979.60
2023-09-29T06:12:06.425Z,979.59
2023-09-29T06:13:06.402Z,979.68
2023-09-29T06:14:06.392Z,979.66
2023-09-29T06:15:06.408Z,979.65
2023-09-29T06:16:06.601Z,979.54
2023-09-29T06:17:06.354Z,979.66
2023-09-29T06:18:06.386Z,979.57
2023-09-29T06:19:07.972Z,979.46
2023-09-29T06:20:06.325Z,979.59
2023-09-29T06:21:06.318Z,979.57
2023-09-29T06:22:06.282Z,979.54
2023-09-29T06:23:06.268Z,979.55
2023-09-29T06:24:06.307Z,979.57
2023-09-29T06:25:06.246Z,979.53
2023-09-29T06:26:06.245Z,979.60
2023-09-29T06:27:06.276Z,979.62
2023-09-29T06:28:06.206Z,979.52
2023-09-29T06:29:06.196Z,979.55
2023-09-29T06:30:06.187Z,979.55
2023-09-29T06:31:06.200Z,979.59
2023-09-29T06:32:06.150Z,979.61
2023-09-29T06:33:06.223Z,979.63
2023-09-29T06:34:06.143Z,979.64
2023-09-29T06:35:06.140Z,979.65
2023-09-29T06:36:06.240Z,979.64
2023-09-29T06:37:06.091Z,979.57
2023-09-29T06:38:06.071Z,979.65
2023-09-29T06:39:06.096Z,979.67
2023-09-29T06:40:06.047Z,979.58
2023-09-29T06:41:06.036Z,979.67
2023-09-29T06:42:06.085Z,979.69
2023-09-29T06:43:06.008Z,979.72
2023-09-29T06:44:05.998Z,979.74
2023-09-29T06:45:06.000Z,979.71
2023-09-29T06:46:05.976Z,979.69
2023-09-29T06:47:05.971Z,979.61
2023-09-29T06:48:06.045Z,979.63
2023-09-29T06:49:05.926Z,979.63
2023-09-29T06:50:05.913Z,979.70
2023-09-29T06:51:05.963Z,979.74
2023-09-29T06:52:05.931Z,979.78
2023-09-29T06:53:05.877Z,979.77
2023-09-29T06:54:05.912Z,979.77
2023-09-29T06:55:05.864Z,979.79
2023-09-29T06:56:05.833Z,979.76
2023-09-29T06:57:05.901Z,979.84
2023-09-29T06:58:05.923Z,979.86
2023-09-29T06:59:08.547Z,979.90
2023-09-29T07:00:05.826Z,979.84
2023-09-29T07:01:08.334Z,979.91
2023-09-29T07:02:05.926Z,979.94
2023-09-29T07:03:05.795Z,979.85
2023-09-29T07:04:08.706Z,979.87
2023-09-29T07:05:05.743Z,979.83
2023-09-29T07:06:05.783Z,979.90
2023-09-29T07:07:05.706Z,979.92
2023-09-29T07:08:05.672Z,979.88
2023-09-29T07:09:05.725Z,979.82
2023-09-29T07:10:05.655Z,979.83
2023-09-29T07:11:05.631Z,979.83
2023-09-29T07:12:05.665Z,979.77
2023-09-29T07:13:05.608Z,979.77
2023-09-29T07:14:05.660Z,979.76
2023-09-29T07:15:05.626Z,979.79
2023-09-29T07:16:05.697Z,979.80
2023-09-29T07:17:05.551Z,979.77
2023-09-29T07:18:05.643Z,979.74
2023-09-29T07:19:05.563Z,979.83
2023-09-29T07:20:05.508Z,979.82
2023-09-29T07:21:05.589Z,979.76
2023-09-29T07:22:05.485Z,979.74
2023-09-29T07:23:05.487Z,979.77
2023-09-29T07:24:05.506Z,979.79
2023-09-29T07:25:05.441Z,979.81
2023-09-29T07:26:05.431Z,979.77
2023-09-29T07:27:05.434Z,979.74
2023-09-29T07:28:05.411Z,979.77
2023-09-29T07:29:05.407Z,979.72
2023-09-29T07:30:05.387Z,979.76
2023-09-29T07:31:05.410Z,979.80
2023-09-29T07:32:05.356Z,979.81
2023-09-29T07:33:05.359Z,979.79
2023-09-29T07:34:05.336Z,979.81
2023-09-29T07:35:05.329Z,979.85
2023-09-29T07:36:05.351Z,979.78
2023-09-29T07:37:05.280Z,979.81
2023-09-29T07:38:05.269Z,979.85
2023-09-29T07:39:05.331Z,979.84
2023-09-29T07:40:05.273Z,979.86
2023-09-29T07:41:05.228Z,979.89
2023-09-29T07:42:05.254Z,979.86
2023-09-29T07:43:05.199Z,979.82
2023-09-29T07:44:05.190Z,979.83
2023-09-29T07:45:05.231Z,979.79
2023-09-29T07:46:05.200Z,979.87
2023-09-29T07:47:05.140Z,979.85
2023-09-29T07:48:05.166Z,979.79
2023-09-29T07:49:05.121Z,979.82
2023-09-29T07:50:05.117Z,979.75
2023-09-29T07:51:05.139Z,979.78
2023-09-29T07:52:05.074Z,979.79
2023-09-29T07:53:05.237Z,979.73
2023-09-29T07:54:05.080Z,979.77
2023-09-29T07:55:05.062Z,979.72
2023-09-29T07:56:05.025Z,979.70
2023-09-29T07:57:05.023Z,979.78
2023-09-29T07:58:04.994Z,979.85
2023-09-29T07:59:04.987Z,979.82
2023-09-29T08:00:05.040Z,979.84
2023-09-29T08:01:04.965Z,979.86
2023-09-29T08:02:04.957Z,979.84
2023-09-29T08:03:05.160Z,979.82
2023-09-29T08:04:05.030Z,979.91
2023-09-29T08:05:04.906Z,979.91
2023-09-29T08:06:04.999Z,979.88
2023-09-29T08:07:06.118Z,979.89
2023-09-29T08:08:04.866Z,979.87
2023-09-29T08:09:04.859Z,979.89
2023-09-29T08:10:04.840Z,979.85
2023-09-29T08:11:04.851Z,979.86
2023-09-29T08:12:04.849Z,979.98
2023-09-29T08:13:04.792Z,979.92
2023-09-29T08:14:04.830Z,979.90
2023-09-29T08:15:04.815Z,979.94
2023-09-29T08:16:04.751Z,979.92
2023-09-29T08:17:04.746Z,979.97
2023-09-29T08:18:04.807Z,979.93
2023-09-29T08:19:04.709Z,979.92
2023-09-29T08:20:04.701Z,979.95
2023-09-29T08:21:04.717Z,979.88
2023-09-29T08:22:04.667Z,979.89
2023-09-29T08:23:04.657Z,979.87
2023-09-29T08:24:04.697Z,979.84
2023-09-29T08:25:04.629Z,979.86
2023-09-29T08:26:04.612Z,979.92
2023-09-29T08:27:04.641Z,979.95
2023-09-29T08:28:04.586Z,979.88
2023-09-29T08:29:04.572Z,979.85
2023-09-29T08:30:04.674Z,979.86
2023-09-29T08:31:04.674Z,979.87
2023-09-29T08:32:04.538Z,979.84
2023-09-29T08:33:17.728Z,979.82
2023-09-29T08:34:05.598Z,979.79
2023-09-29T08:35:04.594Z,979.79
2023-09-29T08:36:04.516Z,979.87
2023-09-29T08:37:04.473Z,979.76
2023-09-29T08:38:04.466Z,979.73
2023-09-29T08:39:04.465Z,979.75
2023-09-29T08:40:04.442Z,979.80
2023-09-29T08:41:04.414Z,979.77
2023-09-29T08:42:04.461Z,979.81
2023-09-29T08:43:04.407Z,979.75
2023-09-29T08:44:07.783Z,979.73
2023-09-29T08:45:04.394Z,979.73
2023-09-29T08:46:04.386Z,979.69
2023-09-29T08:47:04.328Z,979.72
2023-09-29T08:48:04.429Z,979.66
2023-09-29T08:49:04.307Z,979.77
2023-09-29T08:50:04.311Z,979.76
2023-09-29T08:51:04.292Z,979.76
2023-09-29T08:52:04.271Z,979.69
2023-09-29T08:53:04.249Z,979.76
2023-09-29T08:54:04.307Z,979.70
2023-09-29T08:55:04.228Z,979.62
2023-09-29T08:56:04.212Z,979.60
2023-09-29T08:57:04.232Z,979.49
2023-09-29T08:58:04.182Z,979.47
2023-09-29T08:59:04.193Z,979.50
2023-09-29T09:00:04.175Z,979.48
2023-09-29T09:01:04.146Z,979.54
2023-09-29T09:02:04.165Z,979.48
2023-09-29T09:03:04.244Z,979.48
2023-09-29T09:04:04.243Z,979.51
2023-09-29T09:05:04.089Z,979.50
2023-09-29T09:06:04.100Z,979.42
2023-09-29T09:07:04.073Z,979.42
2023-09-29T09:08:04.058Z,979.41
2023-09-29T09:09:04.058Z,979.31
2023-09-29T09:10:04.246Z,979.29
2023-09-29T09:11:04.057Z,979.36
2023-09-29T09:12:04.108Z,979.41
2023-09-29T09:13:04.163Z,979.44
2023-09-29T09:14:03.966Z,979.39
2023-09-29T09:15:05.204Z,979.39
2023-09-29T09:16:04.011Z,979.29
2023-09-29T09:17:03.941Z,979.22
2023-09-29T09:18:04.057Z,979.28
2023-09-29T09:19:04.076Z,979.27
2023-09-29T09:20:04.014Z,979.30
2023-09-29T09:21:03.972Z,979.34
2023-09-29T09:22:03.982Z,979.18
2023-09-29T09:23:03.950Z,979.23
2023-09-29T09:24:03.994Z,979.21
2023-09-29T09:25:03.834Z,979.19
2023-09-29T09:26:03.820Z,979.14
2023-09-29T09:27:04.022Z,979.18
2023-09-29T09:28:03.799Z,979.13
2023-09-29T09:29:03.842Z,979.12
2023-09-29T09:30:03.810Z,979.19
2023-09-29T09:31:03.799Z,979.19
2023-09-29T09:32:03.738Z,979.19
2023-09-29T09:33:03.789Z,979.18
2023-09-29T09:34:03.760Z,979.11
2023-09-29T09:35:03.703Z,979.11
2023-09-29T09:36:03.710Z,979.18
2023-09-29T09:37:03.880Z,979.13
2023-09-29T09:38:03.662Z,979.12
2023-09-29T09:39:03.712Z,979.16
2023-09-29T09:40:03.665Z,979.18
2023-09-29T09:41:03.622Z,979.14
2023-09-29T09:42:03.639Z,979.20
2023-09-29T09:43:03.595Z,979.20
2023-09-29T09:44:03.589Z,979.12
2023-09-29T09:45:03.691Z,979.21
2023-09-29T09:46:03.604Z,979.24
2023-09-29T09:47:03.582Z,979.22
2023-09-29T09:48:03.611Z,979.19
2023-09-29T09:49:03.594Z,979.20
2023-09-29T09:50:03.526Z,979.23
2023-09-29T09:51:03.574Z,979.17
2023-09-29T09:52:03.483Z,979.23
2023-09-29T09:53:03.475Z,979.19
2023-09-29T09:54:03.507Z,979.17
2023-09-29T09:55:03.448Z,979.18
2023-09-29T09:56:03.434Z,979.24
2023-09-29T09:57:03.432Z,979.24
2023-09-29T09:58:03.408Z,979.13
2023-09-29T09:59:03.403Z,979.19
2023-09-29T10:00:03.440Z,979.08
2023-09-29T10:01:03.370Z,979.14
2023-09-29T10:02:03.365Z,979.05
2023-09-29T10:03:03.428Z,979.13
2023-09-29T10:04:03.502Z,979.05
2023-09-29T10:05:03.322Z,979.02
2023-09-29T10:06:03.385Z,979.03
2023-09-29T10:07:03.292Z,978.99
2023-09-29T10:08:03.279Z,979.10
2023-09-29T10:09:03.305Z,979.08
2023-09-29T10:10:03.258Z,979.05
2023-09-29T10:11:03.249Z,979.02
2023-09-29T10:12:03.285Z,979.15
2023-09-29T10:13:03.228Z,979.05
2023-09-29T10:14:03.211Z,979.03
2023-09-29T10:15:03.383Z,978.95
2023-09-29T10:16:03.332Z,978.92
2023-09-29T10:17:03.167Z,978.94
2023-09-29T10:18:03.222Z,978.95
2023-09-29T10:19:03.164Z,978.93
2023-09-29T10:20:03.134Z,978.91
2023-09-29T10:21:03.166Z,978.95
2023-09-29T10:22:03.097Z,978.98
2023-09-29T10:23:03.102Z,978.91
2023-09-29T10:24:03.085Z,978.93
2023-09-29T10:25:03.096Z,978.92
2023-09-29T10:26:03.052Z,978.90
2023-09-29T10:27:03.076Z,978.84
2023-09-29T10:28:03.035Z,978.96
2023-09-29T10:29:03.011Z,978.87
2023-09-29T10:30:03.044Z,978.79
2023-09-29T10:31:02.988Z,978.83
2023-09-29T10:32:02.986Z,978.84
2023-09-29T10:33:03.028Z,978.77
2023-09-29T10:34:03.089Z,978.88
2023-09-29T10:35:02.981Z,978.88
2023-09-29T10:36:02.961Z,978.95
2023-09-29T10:37:02.908Z,978.89
2023-09-29T10:38:02.894Z,978.86
2023-09-29T10:39:02.899Z,978.82
2023-09-29T10:40:02.872Z,978.82
2023-09-29T10:41:15.231Z,978.85
2023-09-29T10:42:03.904Z,978.83
2023-09-29T10:43:02.832Z,978.84
2023-09-29T10:44:02.827Z,978.91
2023-09-29T10:45:02.844Z,978.83
2023-09-29T10:46:02.839Z,978.86
2023-09-29T10:47:04.949Z,978.80
2023-09-29T10:48:02.852Z,978.79
2023-09-29T10:49:03.188Z,978.81
2023-09-29T10:50:02.748Z,978.87
2023-09-29T10:51:02.785Z,978.73
2023-09-29T10:52:02.716Z,978.68
2023-09-29T10:53:02.698Z,978.73
2023-09-29T10:54:02.718Z,978.71
2023-09-29T10:55:02.689Z,978.72
2023-09-29T10:56:02.659Z,978.67
2023-09-29T10:57:02.690Z,978.69
2023-09-29T10:58:02.627Z,978.67
2023-09-29T10:59:02.638Z,978.69
2023-09-29T11:00:02.948Z,978.65
2023-09-29T11:01:02.612Z,978.70
2023-09-29T11:02:02.787Z,978.74
2023-09-29T11:03:02.646Z,978.77
2023-09-29T11:04:02.675Z,978.75
2023-09-29T11:05:02.545Z,978.67
2023-09-29T11:06:02.559Z,978.69
2023-09-29T11:07:04.079Z,978.78
2023-09-29T11:08:02.523Z,978.72
2023-09-29T11:09:02.552Z,978.69
2023-09-29T11:10:02.478Z,978.77
2023-09-29T11:11:02.469Z,978.63
2023-09-29T11:12:02.557Z,978.62
2023-09-29T11:13:02.446Z,978.60
2023-09-29T11:14:02.438Z,978.64
2023-09-29T11:15:02.438Z,978.62
2023-09-29T11:16:02.436Z,978.56
2023-09-29T11:17:02.395Z,978.63
2023-09-29T11:18:02.453Z,978.68
2023-09-29T11:19:02.411Z,978.53
2023-09-29T11:20:02.391Z,978.50
2023-09-29T11:21:02.385Z,978.50
2023-09-29T11:22:02.331Z,978.49
2023-09-29T11:23:02.359Z,978.50
2023-09-29T11:24:02.332Z,978.50
2023-09-29T11:25:02.299Z,978.43
2023-09-29T11:26:02.293Z,978.43
2023-09-29T11:27:02.374Z,978.47
2023-09-29T11:28:02.249Z,978.38
2023-09-29T11:29:02.416Z,978.38
2023-09-29T11:30:02.240Z,978.37
2023-09-29T11:31:02.221Z,978.32
2023-09-29T11:32:02.216Z,978.37
2023-09-29T11:33:02.391Z,978.31
2023-09-29T11:34:02.185Z,978.40
2023-09-29T11:35:02.190Z,978.31
2023-09-29T11:36:06.322Z,978.34
2023-09-29T11:37:02.145Z,978.22
2023-09-29T11:38:02.146Z,978.29
2023-09-29T11:39:02.182Z,978.18
2023-09-29T11:40:02.108Z,978.09
2023-09-29T11:41:02.117Z,978.21
2023-09-29T11:42:02.115Z,978.25
2023-09-29T11:43:02.125Z,978.15
2023-09-29T11:44:02.057Z,978.13
2023-09-29T11:45:02.112Z,978.13
2023-09-29T11:46:02.091Z,978.10
2023-09-29T11:47:02.019Z,978.18
2023-09-29T11:48:02.043Z,978.08
2023-09-29T11:49:01.991Z,978.12
2023-09-29T11:50:01.972Z,977.97
2023-09-29T11:51:01.986Z,978.02
2023-09-29T11:52:01.948Z,978.10
2023-09-29T11:53:01.940Z,978.10
2023-09-29T11:54:01.981Z,978.05
2023-09-29T11:55:01.935Z,978.00
2023-09-29T11:56:01.906Z,978.12
2023-09-29T11:57:01.909Z,978.08
2023-09-29T11:58:01.902Z,978.09
2023-09-29T11:59:01.876Z,978.07
2023-09-29T12:00:01.903Z,978.00
2023-09-29T12:01:01.858Z,977.97
2023-09-29T12:02:01.909Z,978.05
2023-09-29T12:03:01.915Z,977.98
2023-09-29T12:04:02.231Z,978.01
2023-09-29T12:05:01.855Z,978.00
2023-09-29T12:06:01.913Z,978.01
2023-09-29T12:07:01.770Z,977.96
2023-09-29T12:08:01.750Z,978.02
2023-09-29T12:09:01.854Z,978.07
2023-09-29T12:10:01.733Z,977.95
2023-09-29T12:11:01.743Z,978.00
2023-09-29T12:12:02.706Z,977.98
2023-09-29T12:13:01.706Z,978.02
2023-09-29T12:14:01.686Z,978.04
2023-09-29T12:15:01.848Z,977.94
2023-09-29T12:16:01.870Z,977.94
2023-09-29T12:17:01.999Z,977.98
2023-09-29T12:18:01.820Z,977.90
2023-09-29T12:19:01.626Z,977.89
2023-09-29T12:20:01.628Z,977.86
2023-09-29T12:21:01.919Z,977.84
2023-09-29T12:22:01.587Z,977.83
2023-09-29T12:23:01.694Z,977.91
2023-09-29T12:24:01.627Z,977.90
2023-09-29T12:25:01.553Z,977.94
2023-09-29T12:26:03.666Z,977.97
2023-09-29T12:27:01.656Z,977.94
2023-09-29T12:28:01.563Z,977.85